Time;durP1;ratioP1;P1;durP2;ratioP2;P2;SDS_P1;SDS_P2;PMS_P1;PMS_P2;Temp;Humidity;BMP_temperature;BMP_pressure;BME280_temperature;BME280_humidity;BME280_pressure;Samples;Min_cycle;Max_cycle;Signal;HPM_P1;HPM_P2
2023/02/25 00:00:44;;;;;;;;;19.00;18.00;;;;;10.50;58.75;100526.41;2078538;28;46676;-67
2023/02/25 00:01:45;;;;;;;;;19.00;18.50;;;;;10.49;58.75;100524.66;2078834;28;46548;-68
2023/02/25 00:02:45;;;;;;;;;16.00;16.00;;;;;10.49;58.86;100524.66;2078865;28;46612;-66
2023/02/25 00:03:46;;;;;;;;;15.75;14.50;;;;;10.49;58.81;100523.81;2078266;28;46077;-68
2023/02/25 00:04:46;;;;;;;;;20.75;19.00;;;;;10.48;58.54;100525.59;2079015;28;46339;-67
2023/02/25 00:05:47;;;;;;;;;19.75;19.00;;;;;10.49;58.96;100527.31;2073869;28;46248;-66
2023/02/25 00:06:47;;;;;;;;;17.50;16.25;;;;;10.47;58.71;100523.84;2071353;28;46793;-67
2023/02/25 00:07:47;;;;;;;;;21.75;20.00;;;;;10.47;58.81;100530.94;2078746;28;45672;-67
2023/02/25 00:08:49;;;;;;;;;21.25;18.25;;;;;10.47;58.84;100531.81;2078714;28;46488;-67
2023/02/25 00:09:50;;;;;;;;;19.40;19.40;;;;;10.46;58.78;100532.72;2070011;28;46515;-68
2023/02/25 00:11:05;;;;;;;;;19.75;19.00;;;;;10.48;58.85;100528.25;2064827;28;46418;-68
2023/02/25 00:12:06;;;;;;;;;17.60;16.40;;;;;10.49;58.85;100531.75;2077031;28;46662;-68
2023/02/25 00:13:06;;;;;;;;;20.40;19.20;;;;;10.49;58.63;100539.72;2076497;28;46859;-67
2023/02/25 00:14:09;;;;;;;;;21.50;19.00;;;;;10.49;58.76;100540.59;2076041;28;46503;-67
2023/02/25 00:15:10;;;;;;;;;17.60;17.60;;;;;10.50;58.85;100529.06;2078456;28;46383;-66
2023/02/25 00:16:11;;;;;;;;;19.25;16.75;;;;;10.49;58.99;100527.31;2078844;28;46827;-68
2023/02/25 00:17:11;;;;;;;;;16.80;16.00;;;;;10.51;58.70;100524.63;2078703;28;46609;-67
2023/02/25 00:18:12;;;;;;;;;19.50;17.75;;;;;10.50;58.88;100528.19;2076614;28;46515;-68
2023/02/25 00:19:12;;;;;;;;;13.25;13.00;;;;;10.51;58.74;100524.63;2079964;28;46183;-67
2023/02/25 00:20:12;;;;;;;;;18.00;17.50;;;;;10.51;58.61;100524.63;2082629;28;46066;-67
2023/02/25 00:21:14;;;;;;;;;16.50;16.00;;;;;10.50;58.77;100529.06;2081081;28;46147;-68
2023/02/25 00:22:15;;;;;;;;;14.80;14.40;;;;;10.51;58.93;100530.81;2080570;28;46947;-67
2023/02/25 00:23:16;;;;;;;;;20.00;18.25;;;;;10.50;58.72;100525.53;2080943;28;46429;-67
2023/02/25 00:24:16;;;;;;;;;20.50;18.00;;;;;10.52;58.68;100529.03;2087703;28;45536;-67
2023/02/25 00:25:17;;;;;;;;;14.50;13.75;;;;;10.52;58.87;100524.59;2088356;28;46389;-68
2023/02/25 00:28:28;;;;;;;;;20.60;18.00;;;;;10.50;58.74;100529.06;2075796;28;46573;-68
2023/02/25 00:29:29;;;;;;;;;22.20;16.00;;;;;10.50;59.01;100531.72;2080498;28;46680;-66
2023/02/25 00:30:30;;;;;;;;;21.50;17.25;;;;;10.50;58.77;100530.84;2079940;28;46557;-68
2023/02/25 00:31:30;;;;;;;;;15.00;14.00;;;;;10.49;58.81;100529.97;2085226;28;46428;-68
2023/02/25 00:32:31;;;;;;;;;15.25;13.00;;;;;10.49;58.80;100537.94;2080080;28;46403;-69
2023/02/25 00:33:31;;;;;;;;;13.25;12.50;;;;;10.49;58.75;100531.75;2072586;28;45571;-68
2023/02/25 00:34:31;;;;;;;;;16.00;15.00;;;;;10.48;58.58;100530.91;2076338;28;46583;-69
2023/02/25 00:35:33;;;;;;;;;14.25;12.75;;;;;10.47;58.74;100536.25;2080899;28;46364;-67
2023/02/25 00:36:33;;;;;;;;;15.40;14.20;;;;;10.46;58.84;100538.03;2080969;28;46641;-68
2023/02/25 00:37:33;;;;;;;;;13.00;11.75;;;;;10.46;58.48;100539.81;2080830;28;45701;-67
2023/02/25 00:38:35;;;;;;;;;15.75;13.00;;;;;10.45;58.56;100535.41;2097264;28;45597;-68
2023/02/25 00:39:41;;;;;;;;;12.00;12.00;;;;;10.45;58.48;100532.75;2090803;28;45583;-67
2023/02/25 00:40:42;;;;;;;;;11.00;10.20;;;;;10.44;58.49;100528.38;2073523;28;46467;-67
2023/02/25 00:41:42;;;;;;;;;15.50;13.25;;;;;10.44;58.45;100533.66;2073390;28;46182;-68
2023/02/25 00:42:43;;;;;;;;;10.50;9.75;;;;;10.44;58.60;100531.00;2076771;28;46312;-67
2023/02/25 00:43:50;;;;;;;;;6.75;5.50;;;;;10.43;58.28;100535.44;2080329;28;46462;-68
2023/02/25 00:44:51;;;;;;;;;14.80;13.40;;;;;10.43;58.32;100532.78;2080223;28;46235;-67
2023/02/25 00:45:51;;;;;;;;;12.25;9.50;;;;;10.43;58.56;100531.94;2080297;28;46344;-67
2023/02/25 00:46:51;;;;;;;;;12.00;9.00;;;;;10.43;58.37;100532.78;2088907;28;46363;-67
2023/02/25 00:47:52;;;;;;;;;13.75;11.25;;;;;10.43;58.63;100537.22;2093547;28;45708;-66
2023/02/25 00:48:52;;;;;;;;;13.75;13.25;;;;;10.42;58.50;100536.34;2073081;28;46250;-66
2023/02/25 00:49:52;;;;;;;;;11.00;11.00;;;;;10.42;58.27;100533.72;2073296;28;47755;-67
2023/02/25 00:50:53;;;;;;;;;8.00;8.00;;;;;10.42;58.66;100532.84;2075617;28;46948;-67
2023/02/25 00:51:54;;;;;;;;;10.25;10.25;;;;;10.41;58.49;100534.59;2080947;28;46857;-67
2023/02/25 00:52:55;;;;;;;;;11.40;11.20;;;;;10.43;58.43;100532.78;2080735;28;46413;-68
2023/02/25 00:53:56;;;;;;;;;10.50;10.25;;;;;10.42;58.52;100527.53;2080620;28;46510;-66
2023/02/25 00:54:56;;;;;;;;;20.40;17.20;;;;;10.43;58.29;100539.88;2080854;28;46332;-67
2023/02/25 00:55:58;;;;;;;;;14.50;14.50;;;;;10.42;58.46;100532.84;2080268;28;46366;-67
2023/02/25 00:56:59;;;;;;;;;11.80;10.60;;;;;10.43;58.39;100545.19;2072877;28;46689;-68
2023/02/25 00:58:00;;;;;;;;;9.75;9.75;;;;;10.41;58.27;100534.59;2080656;28;46533;-67
2023/02/25 00:59:00;;;;;;;;;14.20;10.60;;;;;10.41;58.52;100544.31;2075542;28;46966;-67
2023/02/25 01:00:01;;;;;;;;;13.25;9.75;;;;;10.40;58.56;100532.84;2080246;28;46332;-68
2023/02/25 01:01:01;;;;;;;;;14.00;12.00;;;;;10.40;58.58;100543.47;2080387;28;45255;-67
2023/02/25 01:02:02;;;;;;;;;12.50;12.25;;;;;10.39;58.64;100533.75;2081058;28;45279;-67
2023/02/25 01:03:03;;;;;;;;;15.25;12.25;;;;;10.40;58.53;100534.63;2080719;28;46678;-67
2023/02/25 01:04:03;;;;;;;;;10.50;8.00;;;;;10.40;58.48;100531.97;2080593;28;46376;-69
2023/02/25 01:05:04;;;;;;;;;10.25;10.25;;;;;10.39;58.59;100533.75;2080685;28;46544;-69
2023/02/25 01:06:07;;;;;;;;;10.00;9.25;;;;;10.38;58.44;100532.00;2080549;28;47126;-66
2023/02/25 01:07:08;;;;;;;;;11.40;10.60;;;;;10.38;58.69;100529.38;2080211;28;46784;-67
2023/02/25 01:08:09;;;;;;;;;16.50;16.50;;;;;10.37;58.71;100532.94;2079063;28;45985;-66
2023/02/25 01:09:12;;;;;;;;;9.40;9.40;;;;;10.36;58.41;100535.63;2079904;28;45174;-67
2023/02/25 01:10:13;;;;;;;;;8.40;8.40;;;;;10.35;58.38;100536.53;2080350;28;46784;-68
2023/02/25 01:11:19;;;;;;;;;8.00;7.75;;;;;10.34;58.51;100540.97;2096885;28;46172;-69
2023/02/25 01:12:20;;;;;;;;;7.80;7.80;;;;;10.35;58.34;100536.53;2095073;28;46384;-66
2023/02/25 01:13:20;;;;;;;;;11.25;10.00;;;;;10.34;58.50;100538.31;2080234;28;46620;-67
2023/02/25 01:14:23;;;;;;;;;7.25;7.25;;;;;10.34;58.31;100540.97;2080408;28;46699;-69
2023/02/25 01:15:24;;;;;;;;;7.80;7.40;;;;;10.33;58.46;100539.22;2096409;28;46552;-69
2023/02/25 01:16:28;;;;;;;;;8.50;7.00;;;;;10.33;58.59;100531.25;2096890;28;46503;-67
2023/02/25 01:17:28;;;;;;;;;8.60;7.00;;;;;10.34;58.47;100542.75;2080667;28;45584;-69
2023/02/25 01:18:29;;;;;;;;;8.50;8.50;;;;;10.32;58.47;100538.34;2080674;28;46040;-67
2023/02/25 01:19:30;;;;;;;;;9.20;8.00;;;;;10.32;58.40;100543.66;2080782;28;46492;-68
2023/02/25 01:20:30;;;;;;;;;9.75;9.75;;;;;10.31;58.42;100541.91;2080568;28;46562;-68
2023/02/25 01:21:34;;;;;;;;;9.25;7.00;;;;;10.30;58.44;100540.19;2096580;28;45267;-67
2023/02/25 01:22:34;;;;;;;;;7.20;6.20;;;;;10.28;58.58;100546.41;2096060;28;46819;-69
2023/02/25 01:23:34;;;;;;;;;7.50;5.75;;;;;10.26;58.31;100541.13;2080536;28;46670;-68
2023/02/25 01:24:35;;;;;;;;;13.50;10.25;;;;;10.25;58.48;100547.34;2096519;28;46834;-67
2023/02/25 01:25:38;;;;;;;;;9.00;9.00;;;;;10.27;58.26;100542.88;2087610;28;45425;-69
2023/02/25 01:26:41;;;;;;;;;9.80;7.60;;;;;10.27;58.32;100547.31;2076130;28;46961;-67
2023/02/25 01:27:41;;;;;;;;;5.80;5.80;;;;;10.27;58.39;100542.00;2071837;28;45651;-68
2023/02/25 01:28:42;;;;;;;;;6.25;5.25;;;;;10.24;58.49;100548.25;2077528;28;45831;-68
2023/02/25 01:29:42;;;;;;;;;7.00;7.00;;;;;10.23;58.81;100543.84;2080350;28;46682;-68
2023/02/25 01:30:43;;;;;;;;;6.75;5.00;;;;;10.23;58.44;100541.22;2096835;28;46420;-70
2023/02/25 01:31:44;;;;;;;;;9.00;7.00;;;;;10.24;58.73;100547.38;2088932;28;46720;-70
2023/02/25 01:32:45;;;;;;;;;7.00;7.00;;;;;10.23;58.70;100545.63;2074902;28;46503;-67
2023/02/25 01:33:45;;;;;;;;;6.75;6.75;;;;;10.21;58.62;100545.69;2080312;28;46891;-68
2023/02/25 01:34:45;;;;;;;;;8.25;7.25;;;;;10.22;58.59;100541.25;2081394;28;46636;-68
2023/02/25 01:35:46;;;;;;;;;7.00;7.00;;;;;10.21;58.98;100542.13;2080335;28;46452;-68
2023/02/25 01:36:47;;;;;;;;;7.75;7.75;;;;;10.20;58.70;100546.56;2080584;28;46233;-67
2023/02/25 01:37:48;;;;;;;;;8.40;6.80;;;;;10.20;58.99;100543.03;2080419;28;47147;-68
2023/02/25 01:38:49;;;;;;;;;5.20;4.40;;;;;10.20;59.12;100543.03;2080858;28;46306;-68
2023/02/25 01:39:49;;;;;;;;;10.25;10.25;;;;;10.20;59.00;100538.59;2079908;28;46396;-67
2023/02/25 01:40:57;;;;;;;;;13.75;9.00;;;;;10.21;59.03;100540.38;2080639;28;46584;-66
2023/02/25 01:42:00;;;;;;;;;8.80;7.00;;;;;10.22;58.84;100533.28;2080268;28;46795;-66
2023/02/25 01:43:00;;;;;;;;;7.80;7.80;;;;;10.22;58.73;100534.16;2081430;28;45699;-68
2023/02/25 01:44:59;;;;;;;;;10.50;6.50;;;;;10.21;58.89;100535.06;2096324;28;46241;-68
2023/02/25 01:45:59;;;;;;;;;9.20;9.20;;;;;10.22;58.83;100536.81;2062930;28;45517;-67
2023/02/25 01:47:00;;;;;;;;;11.75;9.25;;;;;10.23;58.64;100538.56;2054809;28;46460;-68
2023/02/25 01:48:08;;;;;;;;;20.25;17.75;;;;;10.23;58.76;100546.50;2058694;28;46612;-67
2023/02/25 01:49:35;;;;;;;;;15.80;15.60;;;;;10.23;58.80;100540.34;2062922;28;46115;-67
2023/02/25 01:50:41;;;;;;;;;14.20;13.20;;;;;10.21;58.69;100537.72;2060479;28;46627;-67
2023/02/25 01:51:44;;;;;;;;;9.60;9.60;;;;;10.22;58.95;100536.81;2054515;28;48281;-67
2023/02/25 01:52:45;;;;;;;;;9.60;9.60;;;;;10.22;59.14;100535.94;2058297;28;46630;-68
2023/02/25 01:53:46;;;;;;;;;10.00;7.25;;;;;10.22;58.59;100541.25;2061266;28;46427;-68
2023/02/25 01:54:53;;;;;;;;;7.80;5.80;;;;;10.21;58.58;100542.13;2062734;28;46741;-67
2023/02/25 01:55:55;;;;;;;;;6.20;6.20;;;;;10.20;58.59;100546.56;2063125;28;46531;-67
2023/02/25 01:56:57;;;;;;;;;9.20;7.80;;;;;10.20;58.63;100537.72;2062489;28;46624;-67
2023/02/25 01:57:59;;;;;;;;;6.80;6.80;;;;;10.19;58.69;100538.63;2063057;28;46667;-68
2023/02/25 01:58:59;;;;;;;;;5.00;5.00;;;;;10.18;58.59;100536.91;2054971;28;46519;-68
2023/02/25 02:00:00;;;;;;;;;7.25;7.25;;;;;10.17;58.74;100537.81;2054834;28;46246;-67
2023/02/25 02:01:00;;;;;;;;;8.75;5.75;;;;;10.17;58.62;100533.38;2062904;28;47073;-68
2023/02/25 02:02:01;;;;;;;;;8.00;7.50;;;;;10.15;58.78;100526.34;2060127;28;46001;-68
2023/02/25 02:03:01;;;;;;;;;9.00;6.25;;;;;10.14;58.79;100535.19;2062842;28;46143;-69
2023/02/25 02:04:04;;;;;;;;;6.25;6.25;;;;;10.13;58.97;100529.03;2059659;28;46349;-69
2023/02/25 02:05:06;;;;;;;;;9.60;8.60;;;;;10.12;59.01;100532.59;2054700;28;46750;-67
2023/02/25 02:06:14;;;;;;;;;7.00;6.00;;;;;10.10;59.03;100531.75;2061748;28;46656;-67
2023/02/25 02:07:16;;;;;;;;;5.80;5.80;;;;;10.12;59.02;100539.69;2062639;28;46149;-67
2023/02/25 02:08:16;;;;;;;;;7.00;6.80;;;;;10.11;59.10;100537.94;2063118;28;46960;-68
2023/02/25 02:09:21;;;;;;;;;13.75;10.75;;;;;10.09;58.99;100532.66;2062811;28;46213;-67
2023/02/25 02:10:21;;;;;;;;;7.80;6.40;;;;;10.09;58.99;100527.38;2063053;28;46980;-68
2023/02/25 02:11:22;;;;;;;;;7.00;7.00;;;;;10.08;58.75;100524.75;2063418;28;45620;-67
2023/02/25 02:12:26;;;;;;;;;6.75;6.00;;;;;10.08;58.78;100527.41;2061883;28;45011;-67
2023/02/25 02:13:27;;;;;;;;;6.80;6.80;;;;;10.08;59.03;100536.22;2062565;28;46383;-66
2023/02/25 02:14:33;;;;;;;;;5.20;5.20;;;;;10.09;59.04;100529.16;2063054;28;46539;-68
2023/02/25 02:15:40;;;;;;;;;5.00;3.40;;;;;10.07;59.14;100531.84;2062554;28;46469;-67
2023/02/25 02:17:10;;;;;;;;;6.00;6.00;;;;;10.06;59.14;100529.22;2063152;28;46032;-67
2023/02/25 02:18:11;;;;;;;;;7.20;5.00;;;;;10.05;59.13;100527.47;2063079;28;46366;-66
2023/02/25 02:19:23;;;;;;;;;8.00;6.00;;;;;10.04;59.20;100531.91;2055383;28;46752;-67
2023/02/25 02:20:37;;;;;;;;;6.60;6.60;;;;;10.01;59.31;100526.66;2068365;28;46564;-67
2023/02/25 02:21:53;;;;;;;;;4.40;4.20;;;;;10.01;59.21;100534.59;2079317;28;46729;-67
2023/02/25 02:23:13;;;;;;;;;10.00;8.20;;;;;9.98;59.18;100527.59;2079106;28;46971;-66
2023/02/25 02:24:29;;;;;;;;;5.80;5.80;;;;;9.96;59.19;100528.53;2072199;28;45816;-68
2023/02/25 02:25:58;;;;;;;;;5.60;5.60;;;;;9.96;59.20;100533.84;2072051;28;46456;-67
2023/02/25 02:27:13;;;;;;;;;8.20;6.00;;;;;9.94;59.19;100522.41;2078477;28;45860;-67
2023/02/25 02:28:36;;;;;;;;;6.60;5.80;;;;;9.92;59.37;100525.09;2076709;28;46499;-66
2023/02/25 02:30:06;;;;;;;;;7.40;7.40;;;;;9.92;58.97;100518.94;2075882;28;47046;-67
2023/02/25 02:31:24;;;;;;;;;8.60;7.20;;;;;9.91;59.42;100519.81;2074334;28;45877;-66
2023/02/25 02:32:37;;;;;;;;;7.60;6.80;;;;;9.91;59.34;100519.81;2093098;28;47169;-67
2023/02/25 02:33:51;;;;;;;;;9.40;6.80;;;;;9.89;59.47;100519.84;2087822;28;46965;-67
2023/02/25 02:35:01;;;;;;;;;6.00;6.00;;;;;9.87;59.39;100524.31;2079966;28;46927;-68
2023/02/25 02:36:10;;;;;;;;;7.20;6.00;;;;;9.85;59.86;100527.91;2073987;28;46838;-67
2023/02/25 02:37:27;;;;;;;;;6.20;6.20;;;;;9.81;59.43;100524.47;2079891;28;46751;-68
2023/02/25 02:38:49;;;;;;;;;6.00;6.00;;;;;9.80;59.55;100524.50;2080132;28;46880;-67
2023/02/25 02:40:14;;;;;;;;;7.60;5.80;;;;;9.80;59.72;100524.50;2078995;28;46775;-67
2023/02/25 02:41:32;;;;;;;;;6.60;5.20;;;;;9.77;59.56;100525.41;2079595;28;46302;-68
2023/02/25 02:42:42;;;;;;;;;6.80;4.40;;;;;9.76;59.74;100528.97;2072879;28;46707;-68
2023/02/25 02:44:05;;;;;;;;;9.00;7.40;;;;;9.74;59.57;100523.69;2080200;28;45974;-69
2023/02/25 02:45:35;;;;;;;;;7.80;6.20;;;;;9.75;59.83;100524.56;2075748;28;46641;-68
2023/02/25 02:47:18;;;;;;;;;8.20;7.20;;;;;9.74;59.81;100522.84;2074818;28;46472;-67
2023/02/25 02:48:37;;;;;;;;;7.00;6.60;;;;;9.72;59.79;100528.16;2070563;28;46176;-68
2023/02/25 02:49:55;;;;;;;;;6.80;6.80;;;;;9.71;59.64;100525.56;2070877;28;46548;-68
2023/02/25 02:51:01;;;;;;;;;7.20;7.20;;;;;9.69;59.84;100530.88;2070766;28;46481;-68
2023/02/25 02:52:13;;;;;;;;;6.20;5.00;;;;;9.68;60.00;100531.78;2062604;28;46735;-68
2023/02/25 02:53:30;;;;;;;;;9.80;7.40;;;;;9.67;59.70;100535.34;2062761;28;46943;-68
2023/02/25 02:54:35;;;;;;;;;6.00;6.00;;;;;9.67;60.14;100532.69;2069250;28;45738;-68
2023/02/25 02:55:46;;;;;;;;;9.40;7.20;;;;;9.68;59.66;100538.88;2071086;28;45817;-68
2023/02/25 02:56:50;;;;;;;;;1.00;1.00;;;;;9.67;60.09;100531.84;2063659;28;46483;-67
2023/02/25 02:58:00;;;;;;;;;7.00;5.80;;;;;9.68;59.69;100534.44;2062321;28;46475;-67
2023/02/25 02:59:09;;;;;;;;;6.20;6.00;;;;;9.68;59.98;100534.44;2063853;28;46357;-68
2023/02/25 03:00:17;;;;;;;;;6.60;5.60;;;;;9.67;59.93;100537.13;2062665;28;46515;-67
2023/02/25 03:01:25;;;;;;;;;6.00;6.00;;;;;9.67;59.97;100530.06;2067185;28;46427;-67
2023/02/25 03:02:32;;;;;;;;;7.00;6.60;;;;;9.68;59.94;100538.88;2062744;28;46323;-67
2023/02/25 03:03:38;;;;;;;;;7.60;6.00;;;;;9.69;59.90;100538.84;2063430;28;47408;-67
2023/02/25 03:04:42;;;;;;;;;4.60;4.60;;;;;9.69;59.94;100540.63;2065065;28;46403;-68
2023/02/25 03:05:49;;;;;;;;;6.80;6.80;;;;;9.68;59.76;100534.44;2068161;28;46693;-68
2023/02/25 03:06:56;;;;;;;;;4.80;4.40;;;;;9.68;59.93;100541.53;2063085;28;45958;-67
2023/02/25 03:08:27;;;;;;;;;5.00;5.00;;;;;9.68;59.78;100542.41;2068763;28;46326;-68
2023/02/25 03:09:31;;;;;;;;;5.00;5.00;;;;;9.68;60.00;100546.81;2069749;28;47099;-68
2023/02/25 03:10:33;;;;;;;;;6.80;4.40;;;;;9.67;59.99;100545.09;2070790;28;46362;-67
2023/02/25 03:11:34;;;;;;;;;8.40;6.00;;;;;9.68;60.32;100542.41;2070844;28;45841;-68
2023/02/25 03:12:37;;;;;;;;;4.00;4.00;;;;;9.68;59.89;100539.75;2070865;28;46810;-68
2023/02/25 03:13:38;;;;;;;;;14.20;11.80;;;;;9.69;59.88;100543.25;2070753;28;45896;-68
2023/02/25 03:14:38;;;;;;;;;5.75;4.50;;;;;9.69;59.78;100540.63;2070967;28;46946;-70
2023/02/25 03:15:40;;;;;;;;;3.50;3.50;;;;;9.67;59.87;100535.34;2070652;28;46370;-69
2023/02/25 03:16:47;;;;;;;;;7.00;5.40;;;;;9.68;59.56;100541.53;2070458;28;46343;-68
2023/02/25 03:17:55;;;;;;;;;7.00;5.00;;;;;9.69;59.94;100543.25;2070775;28;46786;-67
2023/02/25 03:19:04;;;;;;;;;7.40;4.80;;;;;9.70;59.85;100539.72;2062448;28;46648;-67
2023/02/25 03:20:33;;;;;;;;;4.00;4.00;;;;;9.69;59.69;100535.31;2063612;28;46261;-67
2023/02/25 03:21:40;;;;;;;;;8.00;6.00;;;;;9.70;59.62;100545.00;2046801;28;46384;-68
2023/02/25 03:22:45;;;;;;;;;5.00;4.40;;;;;9.68;59.63;100539.75;2038596;28;46742;-68
2023/02/25 03:23:47;;;;;;;;;2.80;2.80;;;;;9.68;59.95;100536.22;2038477;28;46427;-68
2023/02/25 03:25:13;;;;;;;;;5.00;5.00;;;;;9.68;59.96;100538.88;2049267;28;46429;-68
2023/02/25 03:26:22;;;;;;;;;6.20;4.80;;;;;9.69;59.86;100540.63;2055747;28;45791;-68
2023/02/25 03:27:27;;;;;;;;;3.80;3.40;;;;;9.69;59.83;100536.19;2062212;28;46441;-67
2023/02/25 03:28:30;;;;;;;;;5.20;5.20;;;;;9.71;59.79;100544.09;2061699;28;47184;-66
2023/02/25 03:29:30;;;;;;;;;5.20;5.00;;;;;9.71;59.85;100537.03;2062191;28;46487;-66
2023/02/25 03:30:47;;;;;;;;;5.00;5.00;;;;;9.70;59.87;100539.72;2062515;28;46831;-67
2023/02/25 03:31:55;;;;;;;;;4.20;3.40;;;;;9.70;59.77;100543.22;2062655;28;46929;-64
2023/02/25 03:33:34;;;;;;;;;4.00;4.00;;;;;9.70;59.55;100542.34;2062279;28;46527;-65
2023/02/25 03:34:39;;;;;;;;;13.40;13.40;;;;;9.70;59.64;100542.34;2033703;28;46740;-65
2023/02/25 03:35:42;;;;;;;;;7.00;5.80;;;;;9.69;59.64;100548.56;2030528;28;46923;-65
2023/02/25 03:36:52;;;;;;;;;11.20;9.40;;;;;9.68;59.71;100547.69;2038345;28;46469;-64
2023/02/25 03:38:00;;;;;;;;;5.80;5.80;;;;;9.68;59.80;100549.47;2033659;28;47329;-63
2023/02/25 03:39:25;;;;;;;;;7.40;6.80;;;;;9.69;59.64;100545.91;2030910;28;47071;-64
2023/02/25 03:40:26;;;;;;;;;12.40;11.60;;;;;9.67;59.43;100545.94;2038327;28;46763;-65
2023/02/25 03:41:34;;;;;;;;;5.60;5.40;;;;;9.67;59.93;100551.25;2037090;28;46694;-65
2023/02/25 03:42:37;;;;;;;;;6.20;6.00;;;;;9.66;59.82;100546.00;2030505;29;46194;-64
2023/02/25 03:43:45;;;;;;;;;3.20;3.20;;;;;9.66;59.62;100548.63;2023418;29;46432;-65
2023/02/25 03:44:50;;;;;;;;;6.80;4.00;;;;;9.66;59.70;100546.00;2031067;28;46630;-65
2023/02/25 03:45:52;;;;;;;;;6.00;6.00;;;;;9.63;59.68;100549.53;2036237;28;45036;-65
2023/02/25 03:46:55;;;;;;;;;9.80;7.00;;;;;9.63;59.56;100552.19;2030509;29;46111;-65
2023/02/25 03:47:57;;;;;;;;;8.00;6.20;;;;;9.63;59.75;100543.38;2037525;28;46792;-65
2023/02/25 03:49:00;;;;;;;;;7.80;6.80;;;;;9.64;59.84;100558.38;2038162;28;46382;-64
2023/02/25 03:50:07;;;;;;;;;7.00;5.20;;;;;9.63;59.54;100548.69;2038822;28;45372;-65
2023/02/25 03:51:08;;;;;;;;;4.80;4.40;;;;;9.63;59.55;100552.19;2037511;28;46268;-64
2023/02/25 03:52:15;;;;;;;;;6.80;6.80;;;;;9.63;59.48;100546.03;2030619;29;45561;-65
2023/02/25 03:53:16;;;;;;;;;7.00;6.20;;;;;9.62;59.61;100550.44;2031291;28;46727;-65
2023/02/25 03:54:16;;;;;;;;;5.50;5.50;;;;;9.61;59.64;100542.53;2038021;28;46582;-64
2023/02/25 03:55:17;;;;;;;;;5.00;5.00;;;;;9.60;59.55;100554.03;2038257;28;46669;-64
2023/02/25 03:56:18;;;;;;;;;5.75;4.50;;;;;9.58;59.72;100548.78;2035301;28;46298;-64
2023/02/25 03:57:24;;;;;;;;;7.50;6.00;;;;;9.59;59.43;100554.94;2034688;28;47133;-64
2023/02/25 03:58:24;;;;;;;;;4.40;4.00;;;;;9.57;59.49;100547.03;2038305;28;46383;-65
2023/02/25 03:59:27;;;;;;;;;24.00;21.75;;;;;9.57;59.63;100549.69;2048176;28;46542;-64
2023/02/25 04:00:32;;;;;;;;;7.40;7.40;;;;;9.56;59.34;100550.59;2054590;28;46900;-65
2023/02/25 04:01:33;;;;;;;;;5.40;4.20;;;;;9.57;59.54;100551.47;2054358;28;45311;-65
2023/02/25 04:02:33;;;;;;;;;6.00;6.00;;;;;9.56;59.40;100547.94;2054391;28;45937;-64
2023/02/25 04:03:34;;;;;;;;;7.50;7.00;;;;;9.56;59.35;100555.91;2057801;28;46255;-65
2023/02/25 04:04:34;;;;;;;;;5.25;5.25;;;;;9.57;59.41;100551.47;2055697;28;46436;-65
2023/02/25 04:05:36;;;;;;;;;5.75;5.75;;;;;9.58;59.40;100559.38;2052483;28;45561;-65
2023/02/25 04:06:37;;;;;;;;;5.80;5.80;;;;;9.56;59.59;100555.91;2054465;28;46731;-64
2023/02/25 04:07:38;;;;;;;;;6.20;5.60;;;;;9.56;59.52;100552.38;2056933;28;46615;-65
2023/02/25 04:08:40;;;;;;;;;7.00;5.00;;;;;9.57;58.97;100559.41;2063428;28;46712;-64
2023/02/25 04:09:40;;;;;;;;;13.60;10.20;;;;;9.57;59.35;100554.97;2054685;28;46429;-64
2023/02/25 04:10:43;;;;;;;;;5.75;5.75;;;;;9.56;59.32;100557.66;2062527;28;46525;-65
2023/02/25 04:11:44;;;;;;;;;7.40;5.00;;;;;9.55;59.36;100556.81;2057281;28;46100;-64
2023/02/25 04:12:44;;;;;;;;;6.00;5.25;;;;;9.54;59.32;100551.53;2086930;28;46308;-64
2023/02/25 04:13:44;;;;;;;;;8.50;8.50;;;;;9.52;59.48;100558.59;2083702;28;46422;-64
2023/02/25 04:14:45;;;;;;;;;6.75;6.00;;;;;9.50;59.38;100556.00;2081461;28;46271;-64
2023/02/25 04:15:46;;;;;;;;;5.00;5.00;;;;;9.50;59.38;100560.44;2081800;28;45902;-64
2023/02/25 04:16:46;;;;;;;;;6.40;6.00;;;;;9.49;59.41;100556.03;2079380;28;46716;-66
2023/02/25 04:17:47;;;;;;;;;6.75;5.25;;;;;9.49;59.69;100556.91;2079600;28;46350;-65
2023/02/25 04:18:47;;;;;;;;;4.00;3.00;;;;;9.50;59.41;100560.44;2079973;28;46468;-65
2023/02/25 04:19:47;;;;;;;;;6.00;6.00;;;;;9.50;59.35;100557.78;2090904;28;46424;-64
2023/02/25 04:20:48;;;;;;;;;5.00;3.75;;;;;9.50;59.29;100563.06;2087113;28;46275;-64
2023/02/25 04:21:48;;;;;;;;;6.25;5.75;;;;;9.49;59.43;100561.31;2078821;28;46521;-64
2023/02/25 04:22:48;;;;;;;;;5.50;5.00;;;;;9.49;59.31;100567.50;2079610;28;46258;-65
2023/02/25 04:23:49;;;;;;;;;5.75;5.75;;;;;9.51;59.45;100580.72;2079485;28;46136;-65
2023/02/25 04:24:49;;;;;;;;;8.00;7.00;;;;;9.51;59.48;100572.75;2079336;28;46603;-64
2023/02/25 04:25:49;;;;;;;;;8.50;6.00;;;;;9.50;59.29;100573.66;2078881;28;46591;-65
2023/02/25 04:26:57;;;;;;;;;7.50;7.50;;;;;9.50;59.29;100573.66;2076169;28;46374;-65
2023/02/25 04:27:57;;;;;;;;;7.40;5.00;;;;;9.49;59.43;100578.09;2075030;28;45679;-65
2023/02/25 04:28:58;;;;;;;;;6.25;6.00;;;;;9.49;59.33;100583.38;2078969;28;46680;-64
2023/02/25 04:29:58;;;;;;;;;5.75;4.50;;;;;9.50;59.39;100578.97;2076191;28;46326;-64
2023/02/25 04:30:59;;;;;;;;;6.75;6.00;;;;;9.48;59.34;100581.66;2072901;28;46046;-64
2023/02/25 04:31:59;;;;;;;;;10.00;6.75;;;;;9.47;59.45;100579.91;2079321;28;46696;-64
2023/02/25 04:33:00;;;;;;;;;4.00;4.00;;;;;9.48;59.44;100580.78;2076587;28;46268;-64
2023/02/25 04:34:00;;;;;;;;;4.00;4.00;;;;;9.47;59.37;100579.91;2072770;28;46230;-64
2023/02/25 04:35:02;;;;;;;;;4.50;4.50;;;;;9.47;59.50;100577.25;2078359;28;46905;-63
2023/02/25 04:36:02;;;;;;;;;7.00;5.60;;;;;9.48;59.44;100580.78;2079472;28;46376;-65
2023/02/25 04:37:03;;;;;;;;;5.50;5.50;;;;;9.47;59.45;100579.91;2079219;28;46340;-64
2023/02/25 04:38:04;;;;;;;;;6.20;5.60;;;;;9.47;59.64;100581.69;2079499;28;46491;-64
2023/02/25 04:39:04;;;;;;;;;6.50;5.50;;;;;9.48;59.34;100578.13;2079602;28;46731;-64
2023/02/25 04:40:12;;;;;;;;;6.50;6.50;;;;;9.47;59.41;100577.25;2079245;28;45539;-64
2023/02/25 04:41:12;;;;;;;;;5.20;5.20;;;;;9.47;59.52;100581.69;2090838;28;46409;-64
2023/02/25 04:42:13;;;;;;;;;8.00;7.25;;;;;9.47;59.46;100587.84;2085364;28;46393;-65
2023/02/25 04:43:13;;;;;;;;;5.25;5.25;;;;;9.46;59.52;100580.81;2079615;28;46121;-64
2023/02/25 04:44:13;;;;;;;;;9.75;6.00;;;;;9.46;59.52;100585.22;2079628;28;45593;-65
2023/02/25 04:45:14;;;;;;;;;7.50;6.00;;;;;9.45;59.65;100573.78;2079606;28;45399;-65
2023/02/25 04:46:15;;;;;;;;;4.25;4.25;;;;;9.45;59.40;100579.06;2079376;28;46201;-64
2023/02/25 04:47:15;;;;;;;;;4.25;4.25;;;;;9.44;59.43;100579.97;2079691;28;46548;-64
2023/02/25 04:48:23;;;;;;;;;5.25;5.00;;;;;9.42;59.47;100577.34;2079235;28;46187;-64
2023/02/25 04:49:23;;;;;;;;;5.80;5.80;;;;;9.43;59.64;100581.75;2079707;28;45869;-63
2023/02/25 04:50:24;;;;;;;;;5.75;5.75;;;;;9.42;59.51;100577.34;2079392;28;46635;-66
2023/02/25 04:51:25;;;;;;;;;7.25;6.25;;;;;9.41;59.63;100575.63;2079152;28;45861;-64
2023/02/25 04:52:26;;;;;;;;;9.00;9.00;;;;;9.41;59.76;100580.91;2079545;28;46432;-65
2023/02/25 04:53:26;;;;;;;;;6.00;6.00;;;;;9.42;59.50;100579.13;2079587;28;46772;-64
2023/02/25 04:54:26;;;;;;;;;7.50;5.75;;;;;9.42;59.62;100582.66;2079470;28;46503;-65
2023/02/25 04:55:27;;;;;;;;;8.25;7.00;;;;;9.42;60.03;100582.66;2081987;28;46225;-65
2023/02/25 04:56:28;;;;;;;;;6.00;5.00;;;;;9.43;59.74;100583.53;2082344;28;46948;-65
2023/02/25 04:57:28;;;;;;;;;6.00;6.00;;;;;9.42;59.71;100579.13;2075786;28;46631;-65
2023/02/25 04:58:29;;;;;;;;;4.50;4.50;;;;;9.43;59.65;100586.19;2078658;28;45753;-65
2023/02/25 04:59:29;;;;;;;;;3.50;3.50;;;;;9.42;59.85;100587.09;2079495;28;46830;-65
2023/02/25 05:00:30;;;;;;;;;6.75;4.75;;;;;9.39;59.65;100585.34;2079311;28;46826;-63
2023/02/25 05:01:31;;;;;;;;;5.25;4.00;;;;;9.38;59.83;100580.06;2079221;28;46520;-64
2023/02/25 05:02:31;;;;;;;;;4.20;4.20;;;;;9.39;59.88;100582.69;2079735;28;46555;-64